Time;durP1;ratioP1;P1;durP2;ratioP2;P2;SDS_P1;SDS_P2;PMS_P1;PMS_P2;Temp;Humidity;BMP_temperature;BMP_pressure;BME280_temperature;BME280_humidity;BME280_pressure;Samples;Min_cycle;Max_cycle;Signal;HPM_P1;HPM_P2
2022/01/12 00:01:25;;;;;;;46.57;22.97;;;0.80;99.90;;;1.73;100.00;-19785.81;5012947;28;20677;-63
2022/01/12 00:03:53;;;;;;;49.93;23.77;;;0.90;99.90;;;1.58;100.00;-19780.69;5013254;28;20222;-64
2022/01/12 00:06:24;;;;;;;50.33;23.77;;;0.90;99.90;;;1.55;100.00;-19779.47;5014142;28;20206;-64
2022/01/12 00:08:52;;;;;;;51.67;24.23;;;0.80;99.90;;;1.63;100.00;-19782.38;5013839;28;20237;-63
2022/01/12 00:11:21;;;;;;;53.23;25.27;;;0.80;99.90;;;1.63;100.00;-19782.22;5013659;28;20417;-62
2022/01/12 00:13:51;;;;;;;46.67;23.53;;;0.90;99.90;;;1.51;100.00;-19778.13;5014219;28;20229;-62
2022/01/12 00:16:20;;;;;;;47.17;25.20;;;0.90;99.90;;;1.64;100.00;-19782.56;5014158;28;20230;-62
2022/01/12 00:18:48;;;;;;;49.17;24.27;;;0.80;99.90;;;1.37;100.00;-19773.34;5014249;28;20213;-63
2022/01/12 00:21:17;;;;;;;58.57;24.90;;;0.70;99.90;;;1.33;100.00;-19771.97;5014055;28;20297;-63
2022/01/12 00:23:46;;;;;;;47.87;23.97;;;0.70;99.90;;;1.30;100.00;-19771.09;5013486;28;20260;-63
2022/01/12 00:26:26;;;;;;;47.83;23.73;;;0.70;99.90;;;1.17;100.00;-19766.84;5013659;28;20234;-63
2022/01/12 00:34:26;;;;;;;58.63;26.03;;;0.70;99.90;;;1.54;100.00;-19779.16;5013583;28;20304;-63
2022/01/12 00:36:55;;;;;;;54.67;26.70;;;0.70;99.90;;;1.48;100.00;-19777.25;5013286;28;20245;-63
2022/01/12 00:39:25;;;;;;;53.43;25.13;;;0.70;99.90;;;1.69;100.00;-19784.44;5013778;28;20290;-64
2022/01/12 00:41:53;;;;;;;53.33;24.37;;;0.80;99.90;;;1.53;100.00;-19778.78;5013122;28;20306;-63
2022/01/12 00:44:24;;;;;;;55.23;27.20;;;0.70;99.90;;;1.44;100.00;-19775.72;5013203;28;20226;-62
2022/01/12 00:46:54;;;;;;;57.20;26.97;;;0.70;99.90;;;1.47;100.00;-19776.91;5013362;28;20250;-64
2022/01/12 00:49:22;;;;;;;55.53;27.27;;;0.70;99.90;;;1.48;100.00;-19777.09;5012973;28;20305;-63
2022/01/12 00:51:54;;;;;;;57.00;25.03;;;0.70;99.90;;;1.37;100.00;-19773.34;5013437;28;20241;-63
2022/01/12 00:54:25;;;;;;;56.57;25.37;;;0.70;99.90;;;1.27;100.00;-19770.06;5013455;28;20184;-62
2022/01/12 00:56:53;;;;;;;53.43;25.30;;;0.60;99.90;;;1.49;100.00;-19777.59;5012957;28;20226;-63
2022/01/12 00:59:22;;;;;;;47.30;24.23;;;0.70;99.90;;;1.45;100.00;-19776.06;5012899;28;21005;-63
2022/01/12 01:01:55;;;;;;;49.17;23.53;;;0.70;99.90;;;1.53;100.00;-19778.78;5013292;28;20297;-63
2022/01/12 01:04:25;;;;;;;47.90;22.80;;;0.70;99.90;;;1.34;100.00;-19772.47;5012975;28;20250;-63
2022/01/12 01:06:54;;;;;;;45.63;23.23;;;0.60;99.90;;;1.46;100.00;-19776.41;5012550;28;20207;-63
2022/01/12 01:09:24;;;;;;;45.93;23.63;;;0.50;99.90;;;1.50;100.00;-19777.94;5006160;28;20286;-63
2022/01/12 01:11:52;;;;;;;45.37;23.57;;;0.60;99.90;;;1.31;100.00;-19771.28;4992998;28;20234;-64
2022/01/12 01:14:33;;;;;;;45.70;23.10;;;0.50;99.90;;;1.27;100.00;-19770.25;4993255;28;20227;-62
2022/01/12 01:25:23;;;;;;;46.83;22.30;;;0.60;99.90;;;1.25;100.00;-19769.41;4993291;28;20313;-62
2022/01/12 01:25:32;;;;;;;46.00;21.57;;;0.60;99.90;;;1.37;100.00;-19773.34;5012480;28;20588;-63
2022/01/12 01:28:01;;;;;;;46.03;23.23;;;0.60;99.90;;;1.36;100.00;-19772.97;5012390;28;20391;-63
2022/01/12 01:30:30;;;;;;;44.70;23.27;;;0.60;99.90;;;1.35;100.00;-19772.81;5013015;28;20690;-63
2022/01/12 01:33:04;;;;;;;47.67;23.33;;;0.70;99.90;;;1.29;100.00;-19770.75;5012096;28;20319;-62
2022/01/12 01:35:34;;;;;;;53.23;23.77;;;0.60;99.90;;;1.45;100.00;-19776.25;5012364;28;20244;-62
2022/01/12 01:38:04;;;;;;;43.77;23.10;;;0.60;99.90;;;1.45;100.00;-19776.25;5012314;28;20309;-62
2022/01/12 01:40:38;;;;;;;45.90;22.80;;;0.60;99.90;;;1.46;100.00;-19776.41;5012219;28;20829;-62
2022/01/12 01:43:18;;;;;;;51.63;24.77;;;0.70;99.90;;;1.47;100.00;-19776.91;5011596;28;20190;-62
2022/01/12 01:54:07;;;;;;;46.83;22.87;;;0.60;99.90;;;1.34;100.00;-19772.47;5012662;28;20318;-63
2022/01/12 01:56:37;;;;;;;47.50;23.90;;;0.60;99.90;;;1.33;100.00;-19772.13;5011859;28;20734;-63
2022/01/12 01:59:06;;;;;;;43.30;22.27;;;0.60;99.90;;;1.25;100.00;-19769.56;5011748;28;20240;-63
2022/01/12 02:01:34;;;;;;;43.97;22.87;;;0.60;99.90;;;1.26;100.00;-19769.75;5012257;28;20226;-62
2022/01/12 02:04:04;;;;;;;43.80;23.27;;;0.60;99.90;;;1.13;100.00;-19765.28;5011663;28;20207;-63
2022/01/12 02:06:33;;;;;;;43.60;22.27;;;0.50;99.90;;;1.11;100.00;-19764.78;5012370;28;20297;-64
2022/01/12 02:09:01;;;;;;;46.60;24.83;;;0.50;99.90;;;1.13;100.00;-19765.28;5011861;28;20333;-62
2022/01/12 02:11:30;;;;;;;49.43;24.27;;;0.40;99.90;;;1.06;100.00;-19763.06;5011990;28;21015;-63
2022/01/12 02:14:00;;;;;;;41.40;22.53;;;0.40;99.90;;;1.01;100.00;-19761.19;5011779;28;20222;-62
2022/01/12 02:16:34;;;;;;;44.63;22.17;;;0.40;99.90;;;1.23;100.00;-19768.72;5012043;28;20234;-62
2022/01/12 02:19:18;;;;;;;41.57;21.07;;;0.50;99.90;;;1.16;100.00;-19766.31;5011395;28;20313;-62
2022/01/12 02:35:49;;;;;;;38.70;20.63;;;0.60;99.90;;;1.29;100.00;-19770.59;5011004;28;20230;-63
2022/01/12 02:41:07;;;;;;;41.73;22.27;;;0.60;99.90;;;1.35;100.00;-19772.81;5010926;28;20604;-62
2022/01/12 02:50:37;;;;;;;38.50;20.67;;;0.60;99.90;;;1.25;100.00;-19769.56;5011251;28;20306;-62
2022/01/12 02:54:54;;;;;;;43.07;23.83;;;0.60;99.90;;;1.31;100.00;-19771.44;5010392;28;20365;-63
2022/01/12 02:57:22;;;;;;;44.57;23.67;;;0.60;99.90;;;1.13;100.00;-19765.47;5011044;28;20247;-62
2022/01/12 03:00:04;;;;;;;45.93;23.70;;;0.50;99.90;;;1.55;100.00;-19779.47;5010185;28;20256;-62
2022/01/12 03:02:35;;;;;;;48.57;22.83;;;0.60;99.90;;;1.48;100.00;-19777.25;5010765;28;20850;-62
2022/01/12 03:05:32;;;;;;;50.93;24.00;;;0.60;99.90;;;1.26;100.00;-19769.75;5010612;28;20754;-63
2022/01/12 03:08:09;;;;;;;45.90;24.43;;;0.60;99.90;;;1.30;100.00;-19770.94;5010951;28;20312;-64
2022/01/12 03:10:39;;;;;;;47.93;23.70;;;0.60;99.90;;;1.36;100.00;-19772.97;5010952;28;20249;-64
2022/01/12 03:13:07;;;;;;;46.93;23.33;;;0.60;99.90;;;1.38;100.00;-19773.66;5011084;28;20294;-63
2022/01/12 03:15:40;;;;;;;50.57;24.37;;;0.60;99.90;;;1.29;100.00;-19770.75;5011592;28;20198;-63
2022/01/12 03:18:08;;;;;;;49.67;24.43;;;0.60;99.90;;;1.30;100.00;-19771.09;5010735;28;20235;-62
2022/01/12 03:20:38;;;;;;;48.13;23.53;;;0.60;99.90;;;1.33;100.00;-19772.13;5010620;28;20257;-63
2022/01/12 03:23:06;;;;;;;48.80;24.80;;;0.60;99.90;;;1.33;100.00;-19771.97;5011158;28;20282;-62
2022/01/12 03:25:34;;;;;;;47.83;25.27;;;0.70;99.90;;;1.33;100.00;-19771.97;5010543;28;20337;-63
2022/01/12 03:28:07;;;;;;;48.00;24.93;;;0.60;99.90;;;1.31;100.00;-19771.44;5010473;28;20293;-63
2022/01/12 03:30:41;;;;;;;51.57;24.90;;;0.60;99.90;;;1.20;100.00;-19767.84;5011078;28;20211;-63
2022/01/12 03:33:16;;;;;;;46.57;23.93;;;0.60;99.90;;;1.19;100.00;-19767.50;5010311;28;20245;-62
2022/01/12 03:35:51;;;;;;;45.17;23.10;;;0.60;99.90;;;1.22;100.00;-19768.53;5010376;28;20226;-64
2022/01/12 03:38:22;;;;;;;47.07;23.63;;;0.60;99.90;;;1.29;100.00;-19770.59;5010796;28;20256;-62
2022/01/12 03:40:51;;;;;;;46.00;23.60;;;0.60;99.90;;;1.28;100.00;-19770.41;5010472;28;20235;-63
2022/01/12 03:43:20;;;;;;;42.73;24.00;;;0.60;99.90;;;1.51;100.00;-19778.13;5010055;28;20310;-63
2022/01/12 03:45:49;;;;;;;41.90;22.73;;;0.70;99.90;;;1.40;100.00;-19774.34;5010220;28;20272;-63
2022/01/12 03:48:17;;;;;;;45.87;23.60;;;0.70;99.90;;;1.29;100.00;-19770.75;5010925;28;20214;-63
2022/01/12 03:50:45;;;;;;;40.37;21.40;;;0.60;99.90;;;1.31;100.00;-19771.28;5010263;28;20265;-63
2022/01/12 03:53:13;;;;;;;39.23;22.37;;;0.60;99.90;;;1.44;100.00;-19775.72;5010632;28;20620;-63
2022/01/12 03:55:42;;;;;;;39.87;21.97;;;0.60;99.90;;;1.50;100.00;-19777.94;5009889;28;20272;-62
2022/01/12 03:58:11;;;;;;;38.67;21.90;;;0.70;99.90;;;1.43;100.00;-19775.38;5010388;28;20258;-63
2022/01/12 04:00:41;;;;;;;42.63;23.40;;;0.70;99.90;;;1.54;100.00;-19779.31;5010050;28;20218;-63
2022/01/12 04:03:09;;;;;;;46.63;24.43;;;0.80;99.90;;;1.47;100.00;-19776.75;5010389;28;20704;-64
2022/01/12 04:08:18;;;;;;;46.40;25.33;;;0.70;99.90;;;1.35;100.00;-19772.81;5011100;28;20230;-63
2022/01/12 04:08:29;;;;;;;40.90;21.27;;;0.70;99.90;;;1.51;100.00;-19778.28;5013744;28;20250;-62
2022/01/12 04:11:00;;;;;;;38.93;21.43;;;0.70;99.90;;;1.43;100.00;-19775.38;5013581;28;20246;-63
2022/01/12 04:13:31;;;;;;;41.83;23.43;;;0.70;99.90;;;1.38;100.00;-19773.66;5013590;28;20231;-63
2022/01/12 04:16:04;;;;;;;40.53;22.47;;;0.70;99.90;;;1.50;100.00;-19777.78;5013364;28;20195;-62
2022/01/12 04:18:32;;;;;;;41.53;23.10;;;0.80;99.90;;;1.42;100.00;-19775.22;5014294;28;20294;-63
2022/01/12 04:21:03;;;;;;;42.77;22.20;;;0.70;99.90;;;1.53;100.00;-19778.97;5013332;28;20879;-63
2022/01/12 04:23:31;;;;;;;42.27;22.97;;;0.80;99.90;;;1.59;100.00;-19780.84;5013632;28;20261;-63
2022/01/12 04:26:08;;;;;;;41.60;23.53;;;0.80;99.90;;;1.67;100.00;-19783.75;5013019;28;20317;-63
2022/01/12 04:28:39;;;;;;;42.60;23.17;;;0.90;99.90;;;1.62;100.00;-19782.06;5013653;28;20253;-63
2022/01/12 04:31:10;;;;;;;40.43;21.67;;;0.90;99.90;;;1.57;100.00;-19780.34;5013545;28;20210;-63
2022/01/12 04:33:39;;;;;;;42.10;22.13;;;0.90;99.90;;;1.53;100.00;-19778.97;5014077;28;20728;-63
2022/01/12 04:36:10;;;;;;;42.70;23.37;;;0.90;99.90;;;1.57;100.00;-19780.16;5012968;28;20247;-63
2022/01/12 04:38:41;;;;;;;40.73;22.63;;;0.90;99.90;;;1.53;100.00;-19778.97;5013174;28;20228;-63
2022/01/12 04:41:11;;;;;;;44.20;23.87;;;0.80;99.90;;;1.68;100.00;-19784.09;5012639;28;20246;-63
2022/01/12 04:43:43;;;;;;;42.83;23.33;;;0.80;99.90;;;1.64;100.00;-19782.56;5012993;28;20254;-63
2022/01/12 04:46:28;;;;;;;40.90;23.20;;;0.80;99.90;;;1.53;100.00;-19778.78;5012526;28;20227;-62
2022/01/12 04:49:09;;;;;;;39.83;22.60;;;0.80;99.90;;;1.48;100.00;-19777.09;5013071;28;20294;-63
2022/01/12 04:51:37;;;;;;;42.23;23.13;;;0.70;99.90;;;1.44;100.00;-19775.88;5013597;28;20223;-63
2022/01/12 04:54:06;;;;;;;38.87;22.10;;;0.80;99.90;;;1.45;100.00;-19776.25;5012357;28;20246;-63
2022/01/12 04:56:34;;;;;;;41.50;22.20;;;0.80;99.90;;;1.50;100.00;-19777.94;5012925;28;20550;-62
2022/01/12 04:59:02;;;;;;;37.27;21.87;;;0.80;99.90;;;1.56;100.00;-19779.81;5013075;28;20226;-63
2022/01/12 05:01:36;;;;;;;37.93;22.03;;;0.80;99.90;;;1.62;100.00;-19781.88;5012842;28;20345;-63
2022/01/12 05:07:08;;;;;;;40.10;21.33;;;0.90;99.90;;;1.69;100.00;-19784.44;5012237;28;20642;-63
2022/01/12 05:15:16;;;;;;;34.07;19.53;;;0.90;99.90;;;1.63;100.00;-19782.22;5012611;28;20317;-62
2022/01/12 05:17:45;;;;;;;35.93;19.47;;;1.00;99.90;;;1.78;100.00;-19787.53;5012313;28;20236;-62
2022/01/12 05:20:13;;;;;;;32.53;19.37;;;1.00;99.90;;;1.63;100.00;-19782.38;5012154;28;20231;-62
2022/01/12 05:22:41;;;;;;;31.43;19.13;;;1.00;99.90;;;1.65;100.00;-19782.91;5012413;28;20257;-62
2022/01/12 05:25:10;;;;;;;33.47;18.97;;;1.00;99.90;;;1.66;100.00;-19783.41;5012438;28;20317;-63
2022/01/12 05:27:38;;;;;;;32.33;19.03;;;1.00;99.90;;;1.73;100.00;-19785.81;5012806;28;20262;-63
2022/01/12 05:30:08;;;;;;;33.90;18.67;;;1.00;99.90;;;1.74;100.00;-19785.97;5012227;28;20864;-62
2022/01/12 05:32:36;;;;;;;38.70;22.70;;;1.10;99.90;;;1.72;100.00;-19785.47;5012163;28;20322;-62
2022/01/12 05:35:09;;;;;;;31.83;20.13;;;1.10;99.90;;;1.88;100.00;-19790.94;5011981;28;20747;-62
2022/01/12 05:37:37;;;;;;;32.50;19.03;;;1.20;99.90;;;1.92;100.00;-19792.13;5012453;28;20301;-63
2022/01/12 05:40:07;;;;;;;30.63;19.33;;;1.20;99.90;;;1.98;100.00;-19794.19;5012279;28;20552;-64
2022/01/12 05:42:36;;;;;;;27.67;17.73;;;1.20;99.90;;;1.99;100.00;-19794.53;5011819;28;20202;-63
2022/01/12 05:45:08;;;;;;;28.30;18.73;;;1.20;99.90;;;2.02;100.00;-19795.72;5012189;28;20253;-63
2022/01/12 05:49:33;;;;;;;28.63;18.13;;;1.20;99.90;;;1.87;100.00;-19790.59;5011929;28;20277;-63
2022/01/12 05:50:29;;;;;;;29.67;18.93;;;1.20;99.90;;;1.91;100.00;-19791.78;5011455;28;20317;-63
2022/01/12 05:52:57;;;;;;;31.53;18.97;;;1.20;99.90;;;1.99;100.00;-19794.69;5011937;28;20280;-64
2022/01/12 05:55:26;;;;;;;30.83;18.67;;;1.20;99.90;;;1.96;100.00;-19793.66;5011568;28;20237;-63
2022/01/12 05:57:54;;;;;;;28.70;18.40;;;1.20;99.90;;;1.91;100.00;-19791.78;5011597;28;20686;-63
2022/01/12 06:00:25;;;;;;;28.60;17.83;;;1.30;99.90;;;1.89;100.00;-19791.09;5012118;28;20206;-63
2022/01/12 06:02:54;;;;;;;28.57;19.10;;;1.20;99.90;;;1.74;100.00;-19786.16;5011352;28;20250;-62
2022/01/12 06:05:24;;;;;;;31.60;19.23;;;1.20;99.90;;;1.73;100.00;-19785.63;5011562;28;20233;-64
2022/01/12 06:07:53;;;;;;;29.80;19.17;;;1.20;99.90;;;1.90;100.00;-19791.44;5012028;28;20284;-64
2022/01/12 06:10:23;;;;;;;31.13;19.20;;;1.20;99.90;;;2.12;100.00;-19798.97;5012732;28;20290;-63
2022/01/12 06:12:52;;;;;;;30.33;18.70;;;1.30;99.90;;;2.06;100.00;-19796.91;5012853;28;20206;-64
2022/01/12 06:15:20;;;;;;;31.37;17.73;;;1.30;99.90;;;1.93;100.00;-19792.47;5012719;28;20662;-63
2022/01/12 06:17:48;;;;;;;29.23;18.63;;;1.30;99.90;;;1.83;100.00;-19789.06;5012086;28;20309;-63
2022/01/12 06:20:16;;;;;;;28.77;18.47;;;1.20;99.90;;;1.70;100.00;-19784.59;5011835;28;20234;-64
2022/01/12 06:22:44;;;;;;;33.53;18.33;;;1.10;99.90;;;1.74;100.00;-19786.16;5011964;28;20233;-63
2022/01/12 06:25:15;;;;;;;25.93;17.27;;;1.10;99.90;;;1.76;100.00;-19786.84;5011949;28;20306;-62
2022/01/12 06:27:51;;;;;;;30.13;18.40;;;1.10;99.90;;;1.66;100.00;-19783.41;5012059;28;20235;-64
2022/01/12 06:33:07;;;;;;;25.80;18.00;;;1.00;99.90;;;1.75;100.00;-19786.31;4992065;28;20223;-63
2022/01/12 06:35:35;;;;;;;24.07;16.90;;;1.10;99.90;;;1.79;100.00;-19787.88;4992169;28;20310;-64
2022/01/12 06:38:03;;;;;;;29.07;17.50;;;1.10;99.90;;;1.96;100.00;-19793.66;4992277;28;20312;-64
2022/01/12 06:40:32;;;;;;;27.50;18.03;;;1.10;99.90;;;1.97;100.00;-19793.84;4992276;28;20251;-63
2022/01/12 06:43:02;;;;;;;30.37;18.53;;;1.20;99.90;;;1.80;100.00;-19788.19;4992325;28;20214;-63
2022/01/12 06:45:31;;;;;;;26.90;17.40;;;1.20;99.90;;;1.88;100.00;-19790.94;5002479;28;20214;-63
2022/01/12 06:47:59;;;;;;;28.27;17.57;;;1.20;99.90;;;1.83;100.00;-19789.06;5011873;28;20321;-65
2022/01/12 06:50:27;;;;;;;29.07;18.37;;;1.20;99.90;;;1.87;100.00;-19790.44;5011650;28;20246;-63
2022/01/12 06:52:55;;;;;;;28.17;17.23;;;1.20;99.90;;;1.91;100.00;-19791.97;5012004;28;20837;-63
2022/01/12 06:55:23;;;;;;;29.40;17.67;;;1.30;99.90;;;2.07;100.00;-19797.25;5011304;28;20308;-64
2022/01/12 06:57:52;;;;;;;29.10;18.07;;;1.30;99.90;;;2.05;100.00;-19796.75;5012005;28;20289;-62
2022/01/12 07:00:20;;;;;;;27.17;17.70;;;1.40;99.90;;;2.03;100.00;-19796.06;5012304;28;20202;-64
2022/01/12 07:02:48;;;;;;;30.10;18.27;;;1.40;99.90;;;2.34;100.00;-19806.66;5011664;28;20615;-63
2022/01/12 07:05:17;;;;;;;32.30;18.67;;;1.40;99.90;;;2.24;100.00;-19803.25;5011399;28;20227;-61
2022/01/12 07:07:45;;;;;;;27.57;18.00;;;1.50;99.90;;;2.28;100.00;-19804.59;5011734;28;20269;-63
2022/01/12 07:10:13;;;;;;;31.93;18.60;;;1.60;99.90;;;2.24;100.00;-19803.06;5011221;28;20706;-63
2022/01/12 07:12:41;;;;;;;28.63;18.10;;;1.60;99.90;;;2.25;100.00;-19803.59;5011667;28;20213;-62
2022/01/12 07:15:10;;;;;;;27.80;17.90;;;1.60;99.90;;;2.25;100.00;-19803.41;5011363;28;20338;-63
2022/01/12 07:17:38;;;;;;;30.50;17.43;;;1.60;99.90;;;2.26;100.00;-19803.75;5011475;28;20737;-63
2022/01/12 07:20:08;;;;;;;30.17;19.07;;;1.60;99.90;;;2.38;100.00;-19808.03;5011039;28;20301;-64
2022/01/12 07:22:36;;;;;;;27.60;18.93;;;1.60;99.90;;;2.46;100.00;-19810.78;5011705;28;20310;-62
2022/01/12 07:25:04;;;;;;;30.77;18.33;;;1.60;99.90;;;2.37;100.00;-19807.69;5011629;28;20207;-64
2022/01/12 07:27:32;;;;;;;28.07;18.23;;;1.60;99.90;;;2.31;100.00;-19805.47;5011740;28;20787;-65
2022/01/12 07:30:01;;;;;;;27.23;18.10;;;1.60;99.90;;;2.37;100.00;-19807.69;5011322;28;20237;-62
2022/01/12 07:32:31;;;;;;;27.37;17.30;;;1.70;99.90;;;2.60;100.00;-19815.38;5011262;28;20747;-64
2022/01/12 07:34:59;;;;;;;26.63;17.63;;;1.70;99.90;;;2.53;100.00;-19812.81;5010745;28;20229;-63
2022/01/12 07:37:27;;;;;;;26.13;16.80;;;1.70;99.90;;;2.58;100.00;-19814.53;5010517;28;20253;-63
2022/01/12 07:39:55;;;;;;;26.30;17.40;;;1.70;99.90;;;2.64;100.00;-19816.59;5010894;28;20286;-64
2022/01/12 07:42:23;;;;;;;27.80;16.73;;;1.80;99.90;;;2.57;100.00;-19814.38;5001022;28;20239;-63
2022/01/12 07:44:58;;;;;;;24.70;16.67;;;1.80;99.90;;;2.69;100.00;-19818.28;4995363;28;20309;-63
2022/01/12 07:47:27;;;;;;;26.20;16.03;;;1.90;99.90;;;2.73;100.00;-19819.81;5002323;28;20230;-63
2022/01/12 07:49:59;;;;;;;25.43;16.47;;;1.90;99.90;;;2.75;100.00;-19820.34;5015017;28;20229;-62
2022/01/12 07:52:30;;;;;;;24.60;15.30;;;2.00;99.90;;;2.71;100.00;-19818.97;5015080;28;20250;-66
2022/01/12 07:54:59;;;;;;;25.80;15.90;;;2.00;99.90;;;2.80;100.00;-19822.06;5013536;28;20254;-62
2022/01/12 07:57:28;;;;;;;27.63;17.27;;;2.10;99.90;;;2.83;100.00;-19823.06;5010387;28;20300;-62
2022/01/12 07:59:56;;;;;;;26.90;18.70;;;2.10;99.90;;;2.92;100.00;-19826.31;4994434;28;20223;-65
2022/01/12 08:02:25;;;;;;;26.93;17.97;;;2.10;99.90;;;2.93;100.00;-19826.50;5008454;28;20224;-65
2022/01/12 08:04:54;;;;;;;25.80;17.00;;;2.10;99.90;;;2.97;100.00;-19827.88;5005974;28;20207;-64
2022/01/12 08:07:23;;;;;;;25.57;15.70;;;2.10;99.90;;;2.92;100.00;-19826.16;4996396;28;20204;-80
2022/01/12 08:09:51;;;;;;;26.90;17.93;;;2.10;99.90;;;2.97;100.00;-19828.03;5000144;28;20595;-79
2022/01/12 08:12:19;;;;;;;24.90;16.30;;;2.20;99.90;;;3.07;100.00;-19831.44;5018212;28;20310;-81
2022/01/12 08:14:47;;;;;;;23.20;14.37;;;2.20;99.90;;;3.04;100.00;-19830.25;5022870;28;20223;-73
2022/01/12 08:17:16;;;;;;;27.70;15.10;;;2.30;99.90;;;3.00;100.00;-19828.88;5011561;28;20248;-72
2022/01/12 08:19:44;;;;;;;24.93;14.80;;;2.20;99.90;;;3.09;100.00;-19832.13;5012164;28;20244;-73
2022/01/12 08:22:13;;;;;;;21.77;14.33;;;2.20;99.90;;;3.06;100.00;-19831.09;5009573;28;20735;-73
2022/01/12 08:24:42;;;;;;;24.20;13.47;;;2.30;99.90;;;3.43;100.00;-19843.59;5002434;28;20329;-72
2022/01/12 08:27:10;;;;;;;20.30;13.67;;;2.40;99.90;;;3.35;100.00;-19840.84;5010526;28;20274;-73
2022/01/12 08:29:39;;;;;;;21.00;13.17;;;2.50;99.90;;;3.26;100.00;-19837.94;5011279;28;20241;-67
2022/01/12 08:32:08;;;;;;;20.40;12.87;;;2.40;99.90;;;3.28;100.00;-19838.63;5011132;28;20216;-67
2022/01/12 08:34:37;;;;;;;18.00;12.80;;;2.50;99.90;;;3.37;100.00;-19841.53;5011914;28;20244;-68
2022/01/12 08:37:05;;;;;;;19.47;12.37;;;2.50;99.90;;;3.34;100.00;-19840.69;5011186;28;20321;-67
2022/01/12 08:39:34;;;;;;;16.20;11.97;;;2.50;99.90;;;3.51;100.00;-19846.31;5010837;28;20318;-67
2022/01/12 08:42:03;;;;;;;18.57;12.60;;;2.60;99.90;;;3.39;100.00;-19842.41;5010942;28;20306;-63
2022/01/12 08:44:35;;;;;;;17.27;11.67;;;2.60;99.90;;;3.65;100.00;-19851.13;5011485;28;20225;-62
2022/01/12 08:47:05;;;;;;;16.57;11.57;;;2.70;99.90;;;3.68;100.00;-19852.13;5011132;28;20208;-63
2022/01/12 08:49:33;;;;;;;17.13;10.70;;;2.80;99.90;;;3.60;100.00;-19849.56;5011149;28;20261;-62
2022/01/12 08:52:01;;;;;;;16.40;10.93;;;2.80;99.90;;;3.82;100.00;-19856.75;5010607;28;20309;-61
2022/01/12 08:54:29;;;;;;;15.53;11.33;;;2.90;99.90;;;3.96;100.00;-19861.72;5010843;28;20272;-63
2022/01/12 08:56:57;;;;;;;16.93;12.57;;;3.10;99.90;;;4.08;100.00;-19865.63;5010463;28;20308;-63
2022/01/12 08:59:27;;;;;;;16.07;11.90;;;3.10;99.90;;;4.05;100.00;-19864.78;5010821;28;20328;-62
2022/01/12 09:01:55;;;;;;;16.13;11.90;;;3.20;99.90;;;4.35;100.00;-19874.88;5010559;28;20683;-63
2022/01/12 09:04:23;;;;;;;17.33;11.97;;;3.20;99.90;;;4.29;100.00;-19872.81;5011797;28;20253;-61
2022/01/12 09:06:52;;;;;;;15.63;11.50;;;3.20;99.90;;;4.22;100.00;-19870.59;5011385;28;20252;-63
2022/01/12 09:09:20;;;;;;;14.03;10.73;;;3.30;99.90;;;4.30;100.00;-19873.16;5010436;28;20287;-65
2022/01/12 09:11:48;;;;;;;13.20;9.53;;;3.30;99.90;;;4.35;100.00;-19874.88;5010300;28;20234;-64
2022/01/12 09:14:16;;;;;;;13.73;10.03;;;3.40;99.90;;;4.40;100.00;-19876.75;5010571;28;20324;-66
2022/01/12 09:16:54;;;;;;;15.67;10.97;;;3.40;99.90;;;4.50;100.00;-19880.16;5010539;28;20215;-67
2022/01/12 09:19:22;;;;;;;13.33;10.90;;;3.40;99.90;;;4.54;100.00;-19881.53;5009703;28;20212;-66
2022/01/12 09:21:51;;;;;;;14.30;10.77;;;3.50;99.90;;;4.45;100.00;-19878.47;5009592;28;20288;-66
2022/01/12 09:24:19;;;;;;;14.10;9.43;;;3.50;99.90;;;4.50;100.00;-19880.16;5010048;28;20307;-67
2022/01/12 09:26:49;;;;;;;12.97;9.77;;;3.60;99.90;;;4.48;100.00;-19879.31;5010284;28;20254;-67
2022/01/12 09:29:17;;;;;;;14.43;9.50;;;3.60;99.90;;;4.61;100.00;-19883.94;5010381;28;20261;-62
2022/01/12 09:31:47;;;;;;;12.47;9.00;;;3.70;99.90;;;4.54;100.00;-19881.38;5010500;28;20709;-63
2022/01/12 09:34:16;;;;;;;11.63;8.37;;;3.70;99.90;;;4.66;100.00;-19885.63;5009526;28;20296;-62
2022/01/12 09:36:44;;;;;;;14.23;9.70;;;3.80;99.90;;;4.77;100.00;-19889.22;5009182;28;20262;-63
2022/01/12 09:39:13;;;;;;;12.17;9.40;;;3.80;99.90;;;4.84;100.00;-19891.63;5008970;28;20233;-64
2022/01/12 09:41:41;;;;;;;10.83;8.33;;;3.90;99.90;;;4.83;100.00;-19891.44;5009388;28;20264;-65
2022/01/12 09:44:09;;;;;;;11.57;9.73;;;3.90;99.90;;;4.94;100.00;-19895.03;5009527;28;20614;-63
2022/01/12 09:46:38;;;;;;;10.90;8.10;;;4.00;99.90;;;5.03;100.00;-19897.94;5010464;28;20201;-64
2022/01/12 09:49:08;;;;;;;11.00;8.50;;;4.00;99.90;;;5.14;100.00;-19901.88;5009896;28;20242;-65
2022/01/12 09:51:36;;;;;;;11.60;8.37;;;4.10;99.90;;;5.07;100.00;-19899.31;5009874;28;20234;-64
2022/01/12 09:54:04;;;;;;;11.00;8.53;;;4.10;99.90;;;5.04;100.00;-19898.28;5009731;28;20615;-64
2022/01/12 09:56:33;;;;;;;13.30;9.00;;;4.10;99.90;;;4.98;100.00;-19896.41;5009435;28;20721;-64
2022/01/12 09:59:02;;;;;;;12.23;9.20;;;4.10;99.90;;;4.96;100.00;-19895.91;5009270;28;20237;-63
2022/01/12 10:01:33;;;;;;;12.07;9.00;;;4.00;99.90;;;5.16;100.00;-19902.41;5010156;28;20843;-63
2022/01/12 10:04:14;;;;;;;9.87;7.63;;;4.10;99.90;;;5.15;100.00;-19902.03;5008993;28;20268;-63
2022/01/12 10:06:46;;;;;;;11.63;8.63;;;4.00;99.90;;;5.14;100.00;-19901.88;5009464;28;20320;-64
2022/01/12 10:09:15;;;;;;;10.43;7.83;;;4.10;99.90;;;5.13;100.00;-19901.38;5009265;28;20699;-67
2022/01/12 10:11:52;;;;;;;11.37;8.43;;;4.20;99.90;;;5.38;100.00;-19909.91;5009097;28;20313;-64
2022/01/12 10:14:22;;;;;;;12.83;8.97;;;4.20;99.90;;;5.53;100.00;-19915.22;5009114;28;20301;-63
2022/01/12 10:16:53;;;;;;;9.93;7.70;;;4.30;99.90;;;5.71;100.00;-19921.38;5009574;28;20237;-63
2022/01/12 10:19:29;;;;;;;10.37;8.30;;;4.50;99.90;;;5.63;100.00;-19918.47;5009348;28;20241;-63
2022/01/12 10:22:00;;;;;;;11.80;7.90;;;4.50;99.90;;;5.77;100.00;-19923.25;5008408;28;20394;-61
2022/01/12 10:24:29;;;;;;;11.43;8.23;;;4.60;99.90;;;5.67;100.00;-19919.81;5008674;28;20322;-63
2022/01/12 10:26:58;;;;;;;12.10;8.43;;;4.70;99.90;;;5.65;100.00;-19919.16;5008575;28;20226;-64
2022/01/12 10:29:29;;;;;;;10.27;8.40;;;4.60;99.90;;;5.69;100.00;-19920.50;5008474;28;20257;-65
2022/01/12 10:32:00;;;;;;;10.73;7.57;;;4.60;99.90;;;5.88;100.00;-19927.19;5008590;28;20306;-66
2022/01/12 10:34:36;;;;;;;10.30;8.57;;;4.70;99.90;;;6.13;100.00;-19935.56;5008741;28;20199;-66
2022/01/12 10:37:09;;;;;;;11.27;8.17;;;4.80;99.90;;;5.86;100.00;-19926.31;5008090;28;20226;-68
2022/01/12 10:39:41;;;;;;;11.47;8.33;;;4.80;99.90;;;5.75;100.00;-19922.72;5008059;28;20262;-65
2022/01/12 10:42:11;;;;;;;10.77;8.07;;;4.70;99.90;;;5.95;100.00;-19929.56;5007963;28;20261;-68
2022/01/12 10:44:43;;;;;;;9.97;7.93;;;4.80;99.90;;;5.65;100.00;-19919.31;5008029;28;20702;-68
2022/01/12 10:47:16;;;;;;;12.73;8.63;;;4.80;99.90;;;5.59;100.00;-19917.25;5008136;28;20194;-70
2022/01/12 10:50:02;;;;;;;11.13;8.53;;;4.70;99.90;;;5.87;100.00;-19926.66;5009286;28;20222;-65
2022/01/12 10:52:34;;;;;;;12.40;8.50;;;4.70;99.90;;;5.95;100.00;-19929.56;5008099;28;20737;-65
2022/01/12 10:55:06;;;;;;;11.80;8.60;;;4.80;99.90;;;6.07;100.00;-19933.66;5008540;28;20268;-66
2022/01/12 10:57:38;;;;;;;10.77;7.67;;;4.90;99.90;;;5.90;100.00;-19927.69;5005710;28;20233;-65
2022/01/12 11:00:18;;;;;;;10.90;7.67;;;4.80;99.90;;;6.03;100.00;-19932.13;5008837;28;20615;-64
2022/01/12 11:02:49;;;;;;;11.87;8.67;;;4.90;99.90;;;6.01;100.00;-19931.44;5008411;28;20281;-64
2022/01/12 11:05:22;;;;;;;13.53;10.43;;;5.00;99.90;;;5.91;100.00;-19928.22;5008538;28;20235;-65
2022/01/12 11:07:51;;;;;;;12.63;9.63;;;4.90;99.90;;;6.05;100.00;-19932.97;4991256;28;20251;-64
2022/01/12 11:10:21;;;;;;;11.57;9.20;;;5.00;99.90;;;6.08;100.00;-19934.00;4989108;28;20286;-63
2022/01/12 11:12:51;;;;;;;11.50;8.33;;;5.00;99.90;;;6.15;100.00;-19936.41;4989043;28;20639;-65
2022/01/12 11:15:22;;;;;;;12.13;9.20;;;5.00;99.90;;;6.21;100.00;-19938.13;4991733;28;20230;-64
2022/01/12 11:17:53;;;;;;;13.03;8.80;;;5.00;99.90;;;6.22;100.00;-19938.63;4992951;28;20254;-64